sensor_id;sensor_type;location;lat;lon;timestamp;P1;durP1;ratioP1;P2;durP2;ratioP2
72584;SDS011;60618;40.084;32.908;2023-02-27T00:00:11;10.65;;;3.90;;
72584;SDS011;60618;40.084;32.908;2023-02-27T00:02:41;11.50;;;4.30;;
72584;SDS011;60618;40.084;32.908;2023-02-27T00:05:12;9.40;;;4.35;;
72584;SDS011;60618;40.084;32.908;2023-02-27T00:07:39;10.13;;;4.93;;
72584;SDS011;60618;40.084;32.908;2023-02-27T00:10:07;8.00;;;3.90;;
72584;SDS011;60618;40.084;32.908;2023-02-27T00:12:34;10.80;;;5.05;;
72584;SDS011;60618;40.084;32.908;2023-02-27T00:15:06;9.82;;;4.30;;
72584;SDS011;60618;40.084;32.908;2023-02-27T00:17:35;11.80;;;5.15;;
72584;SDS011;60618;40.084;32.908;2023-02-27T00:20:02;7.90;;;3.70;;
72584;SDS011;60618;40.084;32.908;2023-02-27T00:22:33;9.52;;;3.88;;
72584;SDS011;60618;40.084;32.908;2023-02-27T00:25:00;8.25;;;4.22;;
72584;SDS011;60618;40.084;32.908;2023-02-27T00:27:27;7.90;;;4.00;;
72584;SDS011;60618;40.084;32.908;2023-02-27T00:29:54;7.88;;;3.92;;
72584;SDS011;60618;40.084;32.908;2023-02-27T00:32:21;10.57;;;4.47;;
72584;SDS011;60618;40.084;32.908;2023-02-27T00:34:48;7.75;;;4.00;;
72584;SDS011;60618;40.084;32.908;2023-02-27T00:37:15;10.10;;;4.80;;
72584;SDS011;60618;40.084;32.908;2023-02-27T00:39:42;9.10;;;4.32;;
72584;SDS011;60618;40.084;32.908;2023-02-27T00:42:09;9.80;;;4.75;;
72584;SDS011;60618;40.084;32.908;2023-02-27T00:44:35;9.43;;;4.03;;
72584;SDS011;60618;40.084;32.908;2023-02-27T00:47:02;12.55;;;5.32;;
72584;SDS011;60618;40.084;32.908;2023-02-27T00:49:29;8.77;;;4.30;;
72584;SDS011;60618;40.084;32.908;2023-02-27T00:51:56;11.07;;;4.32;;
72584;SDS011;60618;40.084;32.908;2023-02-27T00:54:23;12.93;;;5.90;;
72584;SDS011;60618;40.084;32.908;2023-02-27T00:56:50;10.67;;;4.80;;
72584;SDS011;60618;40.084;32.908;2023-02-27T00:59:17;11.13;;;5.10;;
72584;SDS011;60618;40.084;32.908;2023-02-27T01:01:44;9.70;;;4.95;;
72584;SDS011;60618;40.084;32.908;2023-02-27T01:04:11;10.63;;;5.15;;
72584;SDS011;60618;40.084;32.908;2023-02-27T01:06:38;10.38;;;5.85;;
72584;SDS011;60618;40.084;32.908;2023-02-27T01:09:05;13.87;;;5.80;;
72584;SDS011;60618;40.084;32.908;2023-02-27T01:11:32;12.68;;;5.35;;
72584;SDS011;60618;40.084;32.908;2023-02-27T01:13:59;16.73;;;7.20;;
72584;SDS011;60618;40.084;32.908;2023-02-27T01:16:26;14.82;;;7.10;;
72584;SDS011;60618;40.084;32.908;2023-02-27T01:18:54;13.88;;;6.22;;
72584;SDS011;60618;40.084;32.908;2023-02-27T01:21:20;11.07;;;5.60;;
72584;SDS011;60618;40.084;32.908;2023-02-27T01:23:48;12.60;;;6.05;;
72584;SDS011;60618;40.084;32.908;2023-02-27T01:26:15;16.60;;;7.38;;
72584;SDS011;60618;40.084;32.908;2023-02-27T01:28:42;14.15;;;7.05;;
72584;SDS011;60618;40.084;32.908;2023-02-27T01:31:09;14.52;;;7.30;;
72584;SDS011;60618;40.084;32.908;2023-02-27T01:33:36;15.17;;;6.87;;
72584;SDS011;60618;40.084;32.908;2023-02-27T01:36:03;12.50;;;6.60;;
72584;SDS011;60618;40.084;32.908;2023-02-27T01:38:30;15.48;;;6.63;;
72584;SDS011;60618;40.084;32.908;2023-02-27T01:40:57;14.05;;;7.18;;
72584;SDS011;60618;40.084;32.908;2023-02-27T01:43:24;13.90;;;6.72;;
72584;SDS011;60618;40.084;32.908;2023-02-27T01:45:51;15.50;;;5.70;;
72584;SDS011;60618;40.084;32.908;2023-02-27T01:48:31;12.45;;;5.38;;
72584;SDS011;60618;40.084;32.908;2023-02-27T01:51:02;14.95;;;6.22;;
72584;SDS011;60618;40.084;32.908;2023-02-27T01:53:35;12.35;;;5.90;;
72584;SDS011;60618;40.084;32.908;2023-02-27T01:56:08;11.93;;;6.18;;
72584;SDS011;60618;40.084;32.908;2023-02-27T01:58:40;10.27;;;5.57;;
72584;SDS011;60618;40.084;32.908;2023-02-27T02:01:08;11.95;;;5.38;;
72584;SDS011;60618;40.084;32.908;2023-02-27T02:06:05;12.68;;;5.95;;
72584;SDS011;60618;40.084;32.908;2023-02-27T02:08:34;13.60;;;6.00;;
72584;SDS011;60618;40.084;32.908;2023-02-27T02:11:05;11.47;;;5.43;;
72584;SDS011;60618;40.084;32.908;2023-02-27T02:13:33;13.60;;;5.80;;
72584;SDS011;60618;40.084;32.908;2023-02-27T02:16:09;12.48;;;5.25;;
72584;SDS011;60618;40.084;32.908;2023-02-27T02:24:10;12.33;;;5.70;;
72584;SDS011;60618;40.084;32.908;2023-02-27T02:27:02;15.85;;;7.25;;
72584;SDS011;60618;40.084;32.908;2023-02-27T02:57:52;17.67;;;8.38;;
72584;SDS011;60618;40.084;32.908;2023-02-27T03:00:26;15.98;;;7.13;;
72584;SDS011;60618;40.084;32.908;2023-02-27T03:03:04;13.13;;;6.57;;
72584;SDS011;60618;40.084;32.908;2023-02-27T03:05:40;14.43;;;6.40;;
72584;SDS011;60618;40.084;32.908;2023-02-27T03:08:14;21.38;;;9.30;;
72584;SDS011;60618;40.084;32.908;2023-02-27T03:11:01;26.05;;;10.48;;
72584;SDS011;60618;40.084;32.908;2023-02-27T03:13:32;21.13;;;9.23;;
72584;SDS011;60618;40.084;32.908;2023-02-27T03:16:02;20.25;;;8.55;;
72584;SDS011;60618;40.084;32.908;2023-02-27T03:18:37;18.87;;;7.60;;
72584;SDS011;60618;40.084;32.908;2023-02-27T03:21:12;15.13;;;6.40;;
72584;SDS011;60618;40.084;32.908;2023-02-27T03:23:47;15.77;;;6.75;;
72584;SDS011;60618;40.084;32.908;2023-02-27T03:26:19;12.73;;;6.28;;
72584;SDS011;60618;40.084;32.908;2023-02-27T03:29:09;11.32;;;5.50;;
72584;SDS011;60618;40.084;32.908;2023-02-27T03:31:41;9.10;;;4.30;;
72584;SDS011;60618;40.084;32.908;2023-02-27T03:34:26;9.75;;;4.40;;
72584;SDS011;60618;40.084;32.908;2023-02-27T03:39:38;11.23;;;4.28;;
72584;SDS011;60618;40.084;32.908;2023-02-27T03:44:57;14.00;;;6.10;;
72584;SDS011;60618;40.084;32.908;2023-02-27T03:47:31;16.02;;;7.70;;
72584;SDS011;60618;40.084;32.908;2023-02-27T03:49:59;15.25;;;7.15;;
72584;SDS011;60618;40.084;32.908;2023-02-27T03:52:27;18.90;;;8.45;;
72584;SDS011;60618;40.084;32.908;2023-02-27T03:55:03;17.73;;;7.45;;
72584;SDS011;60618;40.084;32.908;2023-02-27T03:57:35;15.13;;;7.43;;
72584;SDS011;60618;40.084;32.908;2023-02-27T04:00:03;16.73;;;7.43;;
72584;SDS011;60618;40.084;32.908;2023-02-27T04:02:31;13.30;;;5.85;;
72584;SDS011;60618;40.084;32.908;2023-02-27T04:04:59;14.10;;;6.22;;
72584;SDS011;60618;40.084;32.908;2023-02-27T04:28:15;24.67;;;11.20;;
72584;SDS011;60618;40.084;32.908;2023-02-27T04:30:56;24.88;;;11.10;;
72584;SDS011;60618;40.084;32.908;2023-02-27T04:36:33;16.05;;;6.32;;
72584;SDS011;60618;40.084;32.908;2023-02-27T04:39:08;15.00;;;6.87;;
72584;SDS011;60618;40.084;32.908;2023-02-27T04:41:46;20.77;;;8.88;;
72584;SDS011;60618;40.084;32.908;2023-02-27T04:44:18;24.25;;;10.73;;
72584;SDS011;60618;40.084;32.908;2023-02-27T04:46:48;26.80;;;9.57;;
72584;SDS011;60618;40.084;32.908;2023-02-27T04:52:04;14.13;;;6.27;;
72584;SDS011;60618;40.084;32.908;2023-02-27T04:57:18;13.98;;;6.38;;
72584;SDS011;60618;40.084;32.908;2023-02-27T05:00:10;15.07;;;6.25;;
72584;SDS011;60618;40.084;32.908;2023-02-27T05:02:41;15.02;;;6.30;;
72584;SDS011;60618;40.084;32.908;2023-02-27T05:05:18;17.63;;;7.17;;
72584;SDS011;60618;40.084;32.908;2023-02-27T05:07:51;16.40;;;7.80;;
72584;SDS011;60618;40.084;32.908;2023-02-27T05:13:08;17.55;;;7.85;;
72584;SDS011;60618;40.084;32.908;2023-02-27T05:15:44;13.40;;;6.38;;
72584;SDS011;60618;40.084;32.908;2023-02-27T05:18:16;13.07;;;6.03;;
72584;SDS011;60618;40.084;32.908;2023-02-27T05:32:32;14.03;;;6.80;;
72584;SDS011;60618;40.084;32.908;2023-02-27T05:35:05;17.55;;;7.45;;
72584;SDS011;60618;40.084;32.908;2023-02-27T05:40:12;23.75;;;9.43;;
72584;SDS011;60618;40.084;32.908;2023-02-27T05:42:46;25.10;;;11.25;;
72584;SDS011;60618;40.084;32.908;2023-02-27T05:45:24;27.90;;;12.00;;
72584;SDS011;60618;40.084;32.908;2023-02-27T05:47:56;28.90;;;12.43;;
72584;SDS011;60618;40.084;32.908;2023-02-27T05:50:28;25.52;;;11.05;;
72584;SDS011;60618;40.084;32.908;2023-02-27T05:52:59;26.60;;;11.35;;
72584;SDS011;60618;40.084;32.908;2023-02-27T05:55:49;24.65;;;10.95;;
72584;SDS011;60618;40.084;32.908;2023-02-27T05:58:21;24.60;;;10.27;;
72584;SDS011;60618;40.084;32.908;2023-02-27T06:00:58;22.35;;;10.50;;
72584;SDS011;60618;40.084;32.908;2023-02-27T06:03:27;19.95;;;8.73;;
72584;SDS011;60618;40.084;32.908;2023-02-27T06:05:58;27.23;;;12.00;;
72584;SDS011;60618;40.084;32.908;2023-02-27T06:08:27;30.45;;;12.82;;
72584;SDS011;60618;40.084;32.908;2023-02-27T06:10:54;34.37;;;15.07;;
72584;SDS011;60618;40.084;32.908;2023-02-27T06:13:32;38.90;;;15.32;;
72584;SDS011;60618;40.084;32.908;2023-02-27T06:16:06;34.45;;;14.82;;
72584;SDS011;60618;40.084;32.908;2023-02-27T06:18:36;31.33;;;13.23;;
72584;SDS011;60618;40.084;32.908;2023-02-27T06:21:03;32.13;;;14.10;;
72584;SDS011;60618;40.084;32.908;2023-02-27T06:23:36;36.53;;;15.67;;
72584;SDS011;60618;40.084;32.908;2023-02-27T06:26:18;36.97;;;17.23;;
72584;SDS011;60618;40.084;32.908;2023-02-27T06:28:55;40.65;;;16.95;;
72584;SDS011;60618;40.084;32.908;2023-02-27T06:31:22;43.35;;;17.48;;
72584;SDS011;60618;40.084;32.908;2023-02-27T06:33:52;40.72;;;18.30;;
72584;SDS011;60618;40.084;32.908;2023-02-27T06:36:23;39.57;;;16.40;;
72584;SDS011;60618;40.084;32.908;2023-02-27T06:38:59;33.90;;;15.38;;
72584;SDS011;60618;40.084;32.908;2023-02-27T06:41:34;42.17;;;16.52;;
72584;SDS011;60618;40.084;32.908;2023-02-27T06:44:10;36.92;;;16.50;;
72584;SDS011;60618;40.084;32.908;2023-02-27T06:46:37;39.65;;;16.88;;
72584;SDS011;60618;40.084;32.908;2023-02-27T06:49:18;37.50;;;17.20;;
72584;SDS011;60618;40.084;32.908;2023-02-27T06:51:55;40.25;;;16.80;;
72584;SDS011;60618;40.084;32.908;2023-02-27T06:54:31;35.70;;;16.83;;
72584;SDS011;60618;40.084;32.908;2023-02-27T06:57:06;36.55;;;17.05;;
72584;SDS011;60618;40.084;32.908;2023-02-27T06:59:39;33.15;;;14.88;;
72584;SDS011;60618;40.084;32.908;2023-02-27T07:02:13;40.10;;;17.57;;
72584;SDS011;60618;40.084;32.908;2023-02-27T07:04:51;34.97;;;15.90;;
72584;SDS011;60618;40.084;32.908;2023-02-27T07:07:26;44.03;;;20.88;;
72584;SDS011;60618;40.084;32.908;2023-02-27T07:10:12;57.88;;;20.50;;
72584;SDS011;60618;40.084;32.908;2023-02-27T07:12:39;50.65;;;19.85;;
72584;SDS011;60618;40.084;32.908;2023-02-27T07:15:22;48.50;;;19.93;;
72584;SDS011;60618;40.084;32.908;2023-02-27T07:17:55;43.65;;;19.15;;
72584;SDS011;60618;40.084;32.908;2023-02-27T07:20:29;45.13;;;19.73;;
72584;SDS011;60618;40.084;32.908;2023-02-27T07:25:46;29.25;;;13.98;;
72584;SDS011;60618;40.084;32.908;2023-02-27T07:31:13;34.55;;;13.90;;
72584;SDS011;60618;40.084;32.908;2023-02-27T07:33:55;29.25;;;13.77;;
72584;SDS011;60618;40.084;32.908;2023-02-27T07:36:34;24.30;;;11.60;;
72584;SDS011;60618;40.084;32.908;2023-02-27T07:39:18;31.15;;;14.45;;
72584;SDS011;60618;40.084;32.908;2023-02-27T07:42:07;33.20;;;14.67;;
72584;SDS011;60618;40.084;32.908;2023-02-27T07:44:37;27.55;;;13.15;;
72584;SDS011;60618;40.084;32.908;2023-02-27T07:47:24;32.47;;;14.20;;
72584;SDS011;60618;40.084;32.908;2023-02-27T07:50:03;29.27;;;13.57;;
72584;SDS011;60618;40.084;32.908;2023-02-27T07:52:48;28.88;;;14.55;;
72584;SDS011;60618;40.084;32.908;2023-02-27T07:55:27;31.10;;;13.67;;
72584;SDS011;60618;40.084;32.908;2023-02-27T07:58:17;30.17;;;13.93;;
72584;SDS011;60618;40.084;32.908;2023-02-27T08:00:52;26.83;;;12.57;;
72584;SDS011;60618;40.084;32.908;2023-02-27T08:03:39;26.98;;;12.18;;
72584;SDS011;60618;40.084;32.908;2023-02-27T08:06:17;43.42;;;27.50;;
72584;SDS011;60618;40.084;32.908;2023-02-27T08:08:49;30.07;;;15.00;;
72584;SDS011;60618;40.084;32.908;2023-02-27T08:11:19;33.03;;;16.00;;
72584;SDS011;60618;40.084;32.908;2023-02-27T08:13:51;26.45;;;13.55;;
72584;SDS011;60618;40.084;32.908;2023-02-27T08:16:29;23.73;;;11.43;;
72584;SDS011;60618;40.084;32.908;2023-02-27T08:19:00;28.00;;;14.13;;
72584;SDS011;60618;40.084;32.908;2023-02-27T08:21:39;23.03;;;12.60;;
72584;SDS011;60618;40.084;32.908;2023-02-27T08:24:08;30.80;;;12.27;;
72584;SDS011;60618;40.084;32.908;2023-02-27T08:26:39;25.23;;;11.85;;
72584;SDS011;60618;40.084;32.908;2023-02-27T08:29:14;25.77;;;12.48;;
72584;SDS011;60618;40.084;32.908;2023-02-27T08:31:50;28.60;;;12.43;;
72584;SDS011;60618;40.084;32.908;2023-02-27T08:34:23;30.87;;;12.47;;
72584;SDS011;60618;40.084;32.908;2023-02-27T08:36:58;31.30;;;13.23;;
72584;SDS011;60618;40.084;32.908;2023-02-27T08:39:28;28.73;;;12.65;;
72584;SDS011;60618;40.084;32.908;2023-02-27T08:42:08;25.90;;;11.15;;
72584;SDS011;60618;40.084;32.908;2023-02-27T08:44:35;24.85;;;12.27;;
72584;SDS011;60618;40.084;32.908;2023-02-27T08:47:02;27.13;;;13.10;;
72584;SDS011;60618;40.084;32.908;2023-02-27T08:49:29;21.40;;;10.48;;
72584;SDS011;60618;40.084;32.908;2023-02-27T08:51:56;22.38;;;9.25;;
72584;SDS011;60618;40.084;32.908;2023-02-27T08:54:23;17.38;;;8.65;;
72584;SDS011;60618;40.084;32.908;2023-02-27T08:56:50;19.90;;;9.95;;
72584;SDS011;60618;40.084;32.908;2023-02-27T08:59:16;16.23;;;8.43;;
72584;SDS011;60618;40.084;32.908;2023-02-27T09:01:43;18.15;;;9.85;;
72584;SDS011;60618;40.084;32.908;2023-02-27T09:04:10;17.13;;;8.02;;
72584;SDS011;60618;40.084;32.908;2023-02-27T09:06:37;12.02;;;6.75;;
72584;SDS011;60618;40.084;32.908;2023-02-27T09:09:04;18.50;;;9.93;;
72584;SDS011;60618;40.084;32.908;2023-02-27T09:11:32;18.87;;;8.40;;
72584;SDS011;60618;40.084;32.908;2023-02-27T09:13:59;18.38;;;8.95;;
72584;SDS011;60618;40.084;32.908;2023-02-27T09:16:26;19.92;;;8.70;;
72584;SDS011;60618;40.084;32.908;2023-02-27T09:18:54;17.85;;;8.63;;
72584;SDS011;60618;40.084;32.908;2023-02-27T09:21:20;18.23;;;8.02;;
72584;SDS011;60618;40.084;32.908;2023-02-27T09:23:47;16.50;;;9.20;;
72584;SDS011;60618;40.084;32.908;2023-02-27T09:26:14;22.83;;;11.30;;
72584;SDS011;60618;40.084;32.908;2023-02-27T09:28:41;28.80;;;10.80;;
72584;SDS011;60618;40.084;32.908;2023-02-27T09:31:09;25.95;;;10.40;;
72584;SDS011;60618;40.084;32.908;2023-02-27T09:33:36;21.42;;;10.25;;
72584;SDS011;60618;40.084;32.908;2023-02-27T09:36:04;19.63;;;9.90;;
72584;SDS011;60618;40.084;32.908;2023-02-27T09:38:33;19.40;;;9.40;;
72584;SDS011;60618;40.084;32.908;2023-02-27T09:41:00;25.40;;;10.32;;
72584;SDS011;60618;40.084;32.908;2023-02-27T09:43:36;17.35;;;7.97;;
72584;SDS011;60618;40.084;32.908;2023-02-27T09:46:10;20.52;;;9.60;;
72584;SDS011;60618;40.084;32.908;2023-02-27T09:48:48;19.57;;;10.00;;
72584;SDS011;60618;40.084;32.908;2023-02-27T09:51:18;19.80;;;9.55;;
72584;SDS011;60618;40.084;32.908;2023-02-27T09:53:50;17.75;;;9.52;;
72584;SDS011;60618;40.084;32.908;2023-02-27T09:56:29;16.50;;;8.30;;
72584;SDS011;60618;40.084;32.908;2023-02-27T10:02:30;19.20;;;9.50;;
72584;SDS011;60618;40.084;32.908;2023-02-27T10:08:11;21.65;;;9.63;;
72584;SDS011;60618;40.084;32.908;2023-02-27T10:15:59;20.43;;;9.43;;
72584;SDS011;60618;40.084;32.908;2023-02-27T10:18:39;24.50;;;9.40;;
72584;SDS011;60618;40.084;32.908;2023-02-27T10:21:12;19.70;;;9.23;;
72584;SDS011;60618;40.084;32.908;2023-02-27T10:26:30;25.58;;;10.27;;
72584;SDS011;60618;40.084;32.908;2023-02-27T10:29:14;21.93;;;9.10;;
72584;SDS011;60618;40.084;32.908;2023-02-27T10:34:44;19.52;;;9.52;;
72584;SDS011;60618;40.084;32.908;2023-02-27T10:37:36;27.35;;;9.57;;
72584;SDS011;60618;40.084;32.908;2023-02-27T10:40:11;23.17;;;9.60;;
72584;SDS011;60618;40.084;32.908;2023-02-27T10:42:40;25.10;;;10.00;;
72584;SDS011;60618;40.084;32.908;2023-02-27T10:45:12;22.77;;;9.45;;
72584;SDS011;60618;40.084;32.908;2023-02-27T10:47:40;21.17;;;8.75;;
72584;SDS011;60618;40.084;32.908;2023-02-27T10:50:21;21.27;;;9.48;;
72584;SDS011;60618;40.084;32.908;2023-02-27T10:53:00;20.52;;;8.88;;
72584;SDS011;60618;40.084;32.908;2023-02-27T10:55:31;21.93;;;9.30;;
72584;SDS011;60618;40.084;32.908;2023-02-27T10:58:00;18.83;;;9.50;;
72584;SDS011;60618;40.084;32.908;2023-02-27T11:00:33;15.88;;;9.27;;
72584;SDS011;60618;40.084;32.908;2023-02-27T11:03:08;21.42;;;9.10;;
72584;SDS011;60618;40.084;32.908;2023-02-27T11:05:50;19.83;;;9.07;;
72584;SDS011;60618;40.084;32.908;2023-02-27T11:08:26;16.13;;;9.17;;
72584;SDS011;60618;40.084;32.908;2023-02-27T11:13:30;18.20;;;8.90;;
72584;SDS011;60618;40.084;32.908;2023-02-27T11:16:03;20.20;;;9.02;;
72584;SDS011;60618;40.084;32.908;2023-02-27T11:18:34;19.60;;;9.18;;
72584;SDS011;60618;40.084;32.908;2023-02-27T11:23:48;22.92;;;9.57;;
72584;SDS011;60618;40.084;32.908;2023-02-27T11:26:26;17.98;;;9.10;;
72584;SDS011;60618;40.084;32.908;2023-02-27T11:29:14;16.10;;;7.78;;
72584;SDS011;60618;40.084;32.908;2023-02-27T11:31:46;22.88;;;10.55;;
72584;SDS011;60618;40.084;32.908;2023-02-27T11:34:21;21.20;;;10.27;;
72584;SDS011;60618;40.084;32.908;2023-02-27T11:37:17;18.50;;;9.32;;
72584;SDS011;60618;40.084;32.908;2023-02-27T11:39:52;20.05;;;10.05;;
72584;SDS011;60618;40.084;32.908;2023-02-27T11:42:29;23.52;;;9.98;;
72584;SDS011;60618;40.084;32.908;2023-02-27T11:45:06;20.95;;;9.85;;
72584;SDS011;60618;40.084;32.908;2023-02-27T11:48:23;20.10;;;9.73;;
72584;SDS011;60618;40.084;32.908;2023-02-27T11:55:51;20.73;;;8.60;;
72584;SDS011;60618;40.084;32.908;2023-02-27T11:58:21;19.48;;;9.57;;
72584;SDS011;60618;40.084;32.908;2023-02-27T12:00:53;17.23;;;9.20;;
72584;SDS011;60618;40.084;32.908;2023-02-27T12:05:55;18.52;;;9.50;;
72584;SDS011;60618;40.084;32.908;2023-02-27T12:11:39;20.73;;;9.48;;
72584;SDS011;60618;40.084;32.908;2023-02-27T12:14:17;20.00;;;9.40;;
72584;SDS011;60618;40.084;32.908;2023-02-27T12:17:14;20.13;;;9.98;;
72584;SDS011;60618;40.084;32.908;2023-02-27T12:22:54;21.27;;;10.50;;
72584;SDS011;60618;40.084;32.908;2023-02-27T12:33:58;21.88;;;10.65;;
72584;SDS011;60618;40.084;32.908;2023-02-27T12:36:29;21.50;;;11.05;;
72584;SDS011;60618;40.084;32.908;2023-02-27T12:38:57;24.13;;;10.07;;
72584;SDS011;60618;40.084;32.908;2023-02-27T12:41:35;20.27;;;10.47;;
72584;SDS011;60618;40.084;32.908;2023-02-27T12:47:12;21.15;;;11.10;;
72584;SDS011;60618;40.084;32.908;2023-02-27T13:00:49;28.65;;;12.57;;
72584;SDS011;60618;40.084;32.908;2023-02-27T13:03:29;22.95;;;11.38;;
72584;SDS011;60618;40.084;32.908;2023-02-27T13:09:02;23.70;;;11.90;;
72584;SDS011;60618;40.084;32.908;2023-02-27T13:11:42;21.92;;;11.48;;
72584;SDS011;60618;40.084;32.908;2023-02-27T13:14:45;25.92;;;12.52;;
72584;SDS011;60618;40.084;32.908;2023-02-27T13:22:47;29.33;;;12.20;;
72584;SDS011;60618;40.084;32.908;2023-02-27T13:25:17;24.05;;;12.27;;
72584;SDS011;60618;40.084;32.908;2023-02-27T13:27:47;20.60;;;10.70;;
72584;SDS011;60618;40.084;32.908;2023-02-27T13:44:00;24.58;;;12.48;;
72584;SDS011;60618;40.084;32.908;2023-02-27T13:46:46;25.83;;;12.50;;
72584;SDS011;60618;40.084;32.908;2023-02-27T13:49:20;26.73;;;12.43;;
72584;SDS011;60618;40.084;32.908;2023-02-27T13:51:55;24.67;;;12.55;;
72584;SDS011;60618;40.084;32.908;2023-02-27T13:54:31;34.30;;;13.10;;
72584;SDS011;60618;40.084;32.908;2023-02-27T13:57:22;27.98;;;11.57;;
72584;SDS011;60618;40.084;32.908;2023-02-27T13:59:51;28.35;;;12.45;;
72584;SDS011;60618;40.084;32.908;2023-02-27T14:04:51;26.23;;;12.73;;
72584;SDS011;60618;40.084;32.908;2023-02-27T14:07:21;32.50;;;12.93;;
72584;SDS011;60618;40.084;32.908;2023-02-27T14:10:00;27.10;;;12.55;;
72584;SDS011;60618;40.084;32.908;2023-02-27T14:12:32;28.48;;;12.55;;
72584;SDS011;60618;40.084;32.908;2023-02-27T14:17:54;43.92;;;15.30;;
72584;SDS011;60618;40.084;32.908;2023-02-27T14:23:24;38.55;;;14.63;;
72584;SDS011;60618;40.084;32.908;2023-02-27T14:25:55;36.08;;;15.30;;
72584;SDS011;60618;40.084;32.908;2023-02-27T14:28:41;42.57;;;15.53;;
72584;SDS011;60618;40.084;32.908;2023-02-27T14:31:22;31.25;;;14.32;;
72584;SDS011;60618;40.084;32.908;2023-02-27T14:33:54;31.33;;;13.90;;
72584;SDS011;60618;40.084;32.908;2023-02-27T14:36:26;36.65;;;13.70;;
72584;SDS011;60618;40.084;32.908;2023-02-27T14:38:57;41.22;;;13.82;;
72584;SDS011;60618;40.084;32.908;2023-02-27T14:44:01;37.63;;;14.50;;
72584;SDS011;60618;40.084;32.908;2023-02-27T14:49:15;47.28;;;16.55;;
72584;SDS011;60618;40.084;32.908;2023-02-27T14:51:50;26.75;;;11.95;;
72584;SDS011;60618;40.084;32.908;2023-02-27T14:54:23;21.37;;;7.63;;
72584;SDS011;60618;40.084;32.908;2023-02-27T14:59:33;16.50;;;6.80;;
72584;SDS011;60618;40.084;32.908;2023-02-27T15:02:14;20.17;;;6.65;;
72584;SDS011;60618;40.084;32.908;2023-02-27T15:04:41;18.55;;;5.60;;
72584;SDS011;60618;40.084;32.908;2023-02-27T15:07:11;18.37;;;5.83;;
72584;SDS011;60618;40.084;32.908;2023-02-27T15:09:49;14.88;;;5.97;;
72584;SDS011;60618;40.084;32.908;2023-02-27T15:12:19;14.38;;;5.95;;
72584;SDS011;60618;40.084;32.908;2023-02-27T15:14:51;17.17;;;5.82;;
72584;SDS011;60618;40.084;32.908;2023-02-27T15:17:25;15.90;;;5.85;;
72584;SDS011;60618;40.084;32.908;2023-02-27T15:19:55;12.83;;;5.53;;
72584;SDS011;60618;40.084;32.908;2023-02-27T15:22:24;11.95;;;5.70;;
72584;SDS011;60618;40.084;32.908;2023-02-27T15:25:04;13.38;;;5.45;;
72584;SDS011;60618;40.084;32.908;2023-02-27T15:27:31;14.63;;;5.85;;
72584;SDS011;60618;40.084;32.908;2023-02-27T15:30:00;15.15;;;5.68;;
72584;SDS011;60618;40.084;32.908;2023-02-27T15:32:29;9.77;;;5.50;;
72584;SDS011;60618;40.084;32.908;2023-02-27T15:35:00;12.95;;;5.78;;
72584;SDS011;60618;40.084;32.908;2023-02-27T15:37:42;16.10;;;5.30;;
72584;SDS011;60618;40.084;32.908;2023-02-27T15:40:16;17.55;;;5.35;;
72584;SDS011;60618;40.084;32.908;2023-02-27T15:42:46;15.10;;;5.43;;
72584;SDS011;60618;40.084;32.908;2023-02-27T15:45:17;12.07;;;5.17;;
72584;SDS011;60618;40.084;32.908;2023-02-27T15:47:45;19.48;;;5.80;;
72584;SDS011;60618;40.084;32.908;2023-02-27T15:52:57;14.05;;;5.18;;
72584;SDS011;60618;40.084;32.908;2023-02-27T15:56:05;14.05;;;5.50;;
72584;SDS011;60618;40.084;32.908;2023-02-27T15:58:36;15.23;;;5.30;;
72584;SDS011;60618;40.084;32.908;2023-02-27T16:01:16;12.77;;;5.35;;
72584;SDS011;60618;40.084;32.908;2023-02-27T16:03:46;12.65;;;5.30;;
72584;SDS011;60618;40.084;32.908;2023-02-27T16:06:17;11.98;;;4.40;;
72584;SDS011;60618;40.084;32.908;2023-02-27T16:09:05;12.10;;;4.97;;
72584;SDS011;60618;40.084;32.908;2023-02-27T16:11:44;13.23;;;4.90;;
72584;SDS011;60618;40.084;32.908;2023-02-27T16:19:56;14.20;;;4.95;;
72584;SDS011;60618;40.084;32.908;2023-02-27T16:22:27;13.80;;;7.47;;
72584;SDS011;60618;40.084;32.908;2023-02-27T16:24:53;12.97;;;6.57;;
72584;SDS011;60618;40.084;32.908;2023-02-27T16:27:36;14.27;;;6.40;;
72584;SDS011;60618;40.084;32.908;2023-02-27T16:30:08;16.50;;;7.00;;
72584;SDS011;60618;40.084;32.908;2023-02-27T16:32:39;17.10;;;7.15;;
72584;SDS011;60618;40.084;32.908;2023-02-27T16:35:18;20.90;;;7.90;;
72584;SDS011;60618;40.084;32.908;2023-02-27T16:37:48;16.90;;;7.83;;
72584;SDS011;60618;40.084;32.908;2023-02-27T16:40:19;15.65;;;7.43;;
72584;SDS011;60618;40.084;32.908;2023-02-27T16:42:48;18.02;;;8.57;;
72584;SDS011;60618;40.084;32.908;2023-02-27T16:45:17;18.50;;;7.90;;
72584;SDS011;60618;40.084;32.908;2023-02-27T16:47:54;16.88;;;8.25;;
72584;SDS011;60618;40.084;32.908;2023-02-27T16:50:25;17.87;;;8.20;;
72584;SDS011;60618;40.084;32.908;2023-02-27T16:52:59;18.70;;;8.70;;
72584;SDS011;60618;40.084;32.908;2023-02-27T16:55:26;17.95;;;7.63;;
72584;SDS011;60618;40.084;32.908;2023-02-27T16:57:53;17.55;;;7.85;;
72584;SDS011;60618;40.084;32.908;2023-02-27T17:00:20;19.83;;;8.20;;
72584;SDS011;60618;40.084;32.908;2023-02-27T17:02:47;15.73;;;7.70;;
72584;SDS011;60618;40.084;32.908;2023-02-27T17:05:15;17.02;;;7.50;;
72584;SDS011;60618;40.084;32.908;2023-02-27T17:07:43;17.52;;;8.30;;
72584;SDS011;60618;40.084;32.908;2023-02-27T17:10:15;18.05;;;8.13;;
72584;SDS011;60618;40.084;32.908;2023-02-27T17:12:45;18.35;;;8.00;;
72584;SDS011;60618;40.084;32.908;2023-02-27T17:15:13;17.50;;;8.63;;
72584;SDS011;60618;40.084;32.908;2023-02-27T17:17:41;19.70;;;8.52;;
72584;SDS011;60618;40.084;32.908;2023-02-27T17:20:09;19.63;;;8.30;;
72584;SDS011;60618;40.084;32.908;2023-02-27T17:22:40;15.98;;;7.40;;
72584;SDS011;60618;40.084;32.908;2023-02-27T17:25:11;18.40;;;7.97;;
72584;SDS011;60618;40.084;32.908;2023-02-27T17:27:40;17.57;;;7.87;;
72584;SDS011;60618;40.084;32.908;2023-02-27T17:30:09;16.10;;;7.95;;
72584;SDS011;60618;40.084;32.908;2023-02-27T17:32:37;19.13;;;8.30;;
72584;SDS011;60618;40.084;32.908;2023-02-27T17:35:04;19.30;;;7.97;;
72584;SDS011;60618;40.084;32.908;2023-02-27T17:37:31;14.98;;;8.02;;
72584;SDS011;60618;40.084;32.908;2023-02-27T17:39:58;15.70;;;7.47;;
72584;SDS011;60618;40.084;32.908;2023-02-27T17:42:25;14.73;;;7.13;;
72584;SDS011;60618;40.084;32.908;2023-02-27T17:44:52;14.13;;;7.10;;
72584;SDS011;60618;40.084;32.908;2023-02-27T17:47:19;14.18;;;6.22;;
72584;SDS011;60618;40.084;32.908;2023-02-27T17:49:48;12.57;;;5.80;;
72584;SDS011;60618;40.084;32.908;2023-02-27T17:52:15;15.23;;;6.47;;
72584;SDS011;60618;40.084;32.908;2023-02-27T17:54:42;12.35;;;6.30;;
72584;SDS011;60618;40.084;32.908;2023-02-27T17:57:09;12.52;;;6.50;;
72584;SDS011;60618;40.084;32.908;2023-02-27T17:59:36;15.82;;;7.38;;
72584;SDS011;60618;40.084;32.908;2023-02-27T18:02:03;16.38;;;6.65;;
72584;SDS011;60618;40.084;32.908;2023-02-27T18:04:30;17.07;;;8.03;;
72584;SDS011;60618;40.084;32.908;2023-02-27T18:06:57;18.67;;;7.65;;
72584;SDS011;60618;40.084;32.908;2023-02-27T18:09:25;20.48;;;8.15;;